createdAt,value
2024-05-09T00:00:46.692Z,42.50
2024-05-09T00:03:24.332Z,42.40
2024-05-09T00:05:59.251Z,42.30
2024-05-09T00:08:34.183Z,42.20
2024-05-09T00:11:09.155Z,42.20
2024-05-09T00:13:44.091Z,42.20
2024-05-09T00:16:18.879Z,42.20
2024-05-09T00:18:56.337Z,42.20
2024-05-09T00:21:31.179Z,42.40
2024-05-09T00:24:06.142Z,42.50
2024-05-09T00:26:41.012Z,42.60
2024-05-09T00:29:15.865Z,42.70
2024-05-09T00:31:50.756Z,43.30
2024-05-09T00:34:28.489Z,42.70
2024-05-09T00:37:03.602Z,42.60
2024-05-09T00:39:38.373Z,42.40
2024-05-09T00:42:13.127Z,42.30
2024-05-09T00:44:47.838Z,42.20
2024-05-09T00:47:24.105Z,42.20
2024-05-09T00:50:02.460Z,42.20
2024-05-09T00:52:38.488Z,42.20
2024-05-09T00:55:13.348Z,42.10
2024-05-09T00:57:48.495Z,42.10
2024-05-09T01:00:31.471Z,42.10
2024-05-09T01:03:14.313Z,42.10
2024-05-09T01:05:52.282Z,42.10
2024-05-09T01:08:27.413Z,42.40
2024-05-09T01:11:02.341Z,42.60
2024-05-09T01:13:37.299Z,42.80
2024-05-09T01:16:12.043Z,42.90
2024-05-09T01:18:47.059Z,43.10
2024-05-09T01:21:24.512Z,43.10
2024-05-09T01:24:01.824Z,43.10
2024-05-09T01:26:36.690Z,43.00
2024-05-09T01:29:11.517Z,42.80
2024-05-09T01:31:46.876Z,43.30
2024-05-09T01:34:21.803Z,42.60
2024-05-09T01:36:56.618Z,42.50
2024-05-09T01:39:33.970Z,42.50
2024-05-09T01:42:08.866Z,42.50
2024-05-09T01:44:43.614Z,42.40
2024-05-09T01:47:18.486Z,42.40
2024-05-09T01:49:53.329Z,42.60
2024-05-09T01:52:28.130Z,42.80
2024-05-09T01:55:06.647Z,42.90
2024-05-09T01:57:41.678Z,43.00
2024-05-09T02:00:22.267Z,43.10
2024-05-09T02:03:04.626Z,43.00
2024-05-09T02:05:39.710Z,43.00
2024-05-09T02:08:17.178Z,42.80
2024-05-09T02:10:54.931Z,42.60
2024-05-09T02:13:29.822Z,42.50
2024-05-09T02:16:04.672Z,42.50
2024-05-09T02:18:39.601Z,42.60
2024-05-09T02:21:14.457Z,42.50
2024-05-09T02:23:49.242Z,42.40
2024-05-09T02:26:26.714Z,42.50
2024-05-09T02:29:02.282Z,42.50
2024-05-09T02:31:37.169Z,42.40
2024-05-09T02:34:09.392Z,42.60
2024-05-09T02:36:44.231Z,42.60
2024-05-09T02:39:16.436Z,42.70
2024-05-09T02:41:53.735Z,42.70
2024-05-09T02:44:25.954Z,42.80
2024-05-09T02:47:00.750Z,42.70
2024-05-09T02:49:33.061Z,42.70
2024-05-09T02:52:08.307Z,42.50
2024-05-09T02:54:40.455Z,42.50
2024-05-09T02:57:17.736Z,42.40
2024-05-09T02:59:49.914Z,42.50
2024-05-09T03:02:24.697Z,42.40
2024-05-09T03:04:56.985Z,42.40
2024-05-09T03:07:31.782Z,42.40
2024-05-09T03:10:05.762Z,42.30
2024-05-09T03:12:44.655Z,42.30
2024-05-09T03:15:18.413Z,42.30
2024-05-09T03:17:53.106Z,42.40
2024-05-09T03:20:32.424Z,42.20
2024-05-09T03:23:10.704Z,42.50
2024-05-09T03:25:42.928Z,42.50
2024-05-09T03:28:20.332Z,42.60
2024-05-09T03:30:52.534Z,42.60
2024-05-09T03:33:27.415Z,42.40
2024-05-09T03:35:59.658Z,42.30
2024-05-09T03:38:39.446Z,42.30
2024-05-09T03:41:15.918Z,42.30
2024-05-09T03:43:50.753Z,42.30
2024-05-09T03:46:25.499Z,42.20
2024-05-09T03:48:57.815Z,42.20
2024-05-09T03:51:32.630Z,42.20
2024-05-09T03:54:04.877Z,42.20
2024-05-09T03:56:41.839Z,42.10
2024-05-09T03:59:16.761Z,42.10
2024-05-09T04:01:51.653Z,42.20
2024-05-09T04:04:23.983Z,42.30
2024-05-09T04:06:58.690Z,42.20
2024-05-09T04:09:30.870Z,42.20
2024-05-09T04:12:05.759Z,42.30
2024-05-09T04:14:42.951Z,42.40
2024-05-09T04:17:17.863Z,42.30
2024-05-09T04:19:50.066Z,42.30
2024-05-09T04:22:24.814Z,42.20
2024-05-09T04:24:57.010Z,42.20
2024-05-09T04:27:31.788Z,42.10
2024-05-09T04:30:12.232Z,42.10
2024-05-09T04:32:53.552Z,42.60
2024-05-09T04:35:25.873Z,42.60
2024-05-09T04:38:00.750Z,42.60
2024-05-09T04:40:36.021Z,42.60
2024-05-09T04:43:19.109Z,42.20
2024-05-09T04:45:54.051Z,39.50
2024-05-09T04:48:29.008Z,36.30
2024-05-09T04:51:02.139Z,33.40
2024-05-09T04:53:37.099Z,31.80
2024-05-09T04:56:09.483Z,31.90
2024-05-09T04:58:44.401Z,33.10
2024-05-09T05:01:19.248Z,33.40
2024-05-09T05:03:55.862Z,33.40
2024-05-09T05:06:30.293Z,33.70
2024-05-09T05:09:05.239Z,34.50
2024-05-09T05:11:37.573Z,35.00
2024-05-09T05:14:12.523Z,35.80
2024-05-09T05:16:47.333Z,36.00
2024-05-09T05:19:22.261Z,36.30
2024-05-09T05:21:54.537Z,36.60
2024-05-09T05:24:29.392Z,36.80
2024-05-09T05:27:02.317Z,37.00
2024-05-09T05:29:37.136Z,37.30
2024-05-09T05:32:12.141Z,37.70
2024-05-09T05:34:47.097Z,38.10
2024-05-09T05:37:19.306Z,38.20
2024-05-09T05:39:54.079Z,38.30
2024-05-09T05:42:26.944Z,38.50
2024-05-09T05:45:01.716Z,38.50
2024-05-09T05:47:38.757Z,38.50
2024-05-09T05:50:23.814Z,38.60
2024-05-09T05:53:00.739Z,38.90
2024-05-09T05:55:36.351Z,39.00
2024-05-09T05:58:12.394Z,39.20
2024-05-09T06:00:48.364Z,39.20
2024-05-09T06:03:24.164Z,39.30
2024-05-09T06:05:59.725Z,39.40
2024-05-09T06:08:32.669Z,39.30
2024-05-09T06:11:08.334Z,39.40
2024-05-09T06:13:43.257Z,39.40
2024-05-09T06:16:18.718Z,39.50
2024-05-09T06:18:54.403Z,39.60
2024-05-09T06:21:30.088Z,39.80
2024-05-09T06:24:06.599Z,39.90
2024-05-09T06:26:44.853Z,40.20
2024-05-09T06:29:17.769Z,40.50
2024-05-09T06:31:53.503Z,40.70
2024-05-09T06:34:30.004Z,40.80
2024-05-09T06:37:05.816Z,41.00
2024-05-09T06:39:38.775Z,41.10
2024-05-09T06:42:14.323Z,41.20
2024-05-09T06:44:47.577Z,41.30
2024-05-09T06:47:23.977Z,41.30
2024-05-09T06:49:59.981Z,41.20
2024-05-09T06:52:36.173Z,41.00
2024-05-09T06:55:09.493Z,40.70
2024-05-09T06:57:45.565Z,40.20
2024-05-09T07:00:27.392Z,39.80
2024-05-09T07:03:18.760Z,39.40
2024-05-09T07:05:55.063Z,38.90
2024-05-09T07:08:30.727Z,38.70
2024-05-09T07:11:04.636Z,38.40
2024-05-09T07:13:40.414Z,38.10
2024-05-09T07:16:13.755Z,37.70
2024-05-09T07:18:55.206Z,37.50
2024-05-09T07:21:32.441Z,37.20
2024-05-09T07:24:08.642Z,36.90
2024-05-09T07:26:41.425Z,36.80
2024-05-09T07:29:16.994Z,36.60
2024-05-09T07:31:51.023Z,36.30
2024-05-09T07:34:26.704Z,36.00
2024-05-09T07:37:02.296Z,36.20
2024-05-09T07:39:37.740Z,36.40
2024-05-09T07:42:10.989Z,36.40
2024-05-09T07:44:46.808Z,36.30
2024-05-09T07:48:29.219Z,35.90
2024-05-09T07:53:35.687Z,35.10
2024-05-09T07:55:50.138Z,35.00
2024-05-09T07:58:27.722Z,35.10
2024-05-09T08:01:03.725Z,35.20
2024-05-09T08:03:38.649Z,35.30
2024-05-09T08:06:14.624Z,36.10
2024-05-09T08:08:52.769Z,35.60
2024-05-09T08:11:25.861Z,35.60
2024-05-09T08:14:01.399Z,35.70
2024-05-09T08:16:34.368Z,35.90
2024-05-09T08:19:09.987Z,35.90
2024-05-09T08:21:45.671Z,35.90
2024-05-09T08:24:21.081Z,35.90
2024-05-09T08:26:56.560Z,35.50
2024-05-09T08:29:29.572Z,35.30
2024-05-09T08:32:06.162Z,35.20
2024-05-09T08:34:39.535Z,35.00
2024-05-09T08:37:21.491Z,35.00
2024-05-09T08:39:58.839Z,35.00
2024-05-09T08:42:36.324Z,35.10
2024-05-09T08:45:10.760Z,35.10
2024-05-09T08:47:49.391Z,34.70
2024-05-09T08:50:31.712Z,34.10
2024-05-09T08:53:14.948Z,34.20
2024-05-09T08:55:52.258Z,34.30
2024-05-09T08:58:29.047Z,34.50
2024-05-09T09:01:04.415Z,34.10
2024-05-09T09:03:41.581Z,34.10
2024-05-09T09:06:18.423Z,33.40
2024-05-09T09:08:54.501Z,33.50
2024-05-09T09:11:30.121Z,33.60
2024-05-09T09:14:06.188Z,33.20
2024-05-09T09:16:39.401Z,33.60
2024-05-09T09:19:15.524Z,33.70
2024-05-09T09:21:48.894Z,33.70
2024-05-09T09:24:24.826Z,33.30
2024-05-09T09:27:00.434Z,32.90
2024-05-09T09:29:35.811Z,32.40
2024-05-09T09:32:09.173Z,32.10
2024-05-09T09:34:44.749Z,32.10
2024-05-09T09:37:23.900Z,31.90
2024-05-09T09:40:01.528Z,31.80
2024-05-09T09:42:38.846Z,31.70
2024-05-09T09:45:15.771Z,31.30
2024-05-09T09:47:50.334Z,31.50
2024-05-09T09:50:33.742Z,32.00
2024-05-09T09:53:08.238Z,32.00
2024-05-09T09:55:49.056Z,33.00
2024-05-09T09:58:26.075Z,32.50
2024-05-09T10:01:02.437Z,31.80
2024-05-09T10:03:35.963Z,31.80
2024-05-09T10:06:14.207Z,32.30
2024-05-09T10:08:48.700Z,32.60
2024-05-09T10:11:25.129Z,32.70
2024-05-09T10:14:03.620Z,32.30
2024-05-09T10:16:46.746Z,32.70
2024-05-09T10:19:25.104Z,32.90
2024-05-09T10:22:09.177Z,31.40
2024-05-09T10:24:48.644Z,30.30
2024-05-09T10:27:33.737Z,31.40
2024-05-09T10:30:14.825Z,31.10
2024-05-09T10:33:00.420Z,30.40
2024-05-09T10:35:33.481Z,34.90
2024-05-09T10:38:10.012Z,35.50
2024-05-09T10:40:43.989Z,35.50
2024-05-09T10:43:22.405Z,34.40
2024-05-09T10:45:58.070Z,36.10
2024-05-09T10:48:34.385Z,36.60
2024-05-09T10:51:08.061Z,37.60
2024-05-09T10:53:45.219Z,37.50
2024-05-09T10:56:18.533Z,36.90
2024-05-09T10:58:54.940Z,36.60
2024-05-09T11:01:30.684Z,35.30
2024-05-09T11:04:06.493Z,38.10
2024-05-09T11:06:40.042Z,38.80
2024-05-09T11:09:15.527Z,41.50
2024-05-09T11:11:48.983Z,41.30
2024-05-09T11:14:24.566Z,40.70
2024-05-09T11:17:06.223Z,41.60
2024-05-09T11:19:49.024Z,40.60
2024-05-09T11:22:25.232Z,41.40
2024-05-09T11:25:00.757Z,43.60
2024-05-09T11:27:34.009Z,44.00
2024-05-09T11:30:29.578Z,46.30
2024-05-09T11:33:11.032Z,47.50
2024-05-09T11:35:47.130Z,48.00
2024-05-09T11:38:20.171Z,45.80
2024-05-09T11:40:55.741Z,43.20
2024-05-09T11:43:29.069Z,40.90
2024-05-09T11:46:05.834Z,38.90
2024-05-09T11:48:42.657Z,38.20
2024-05-09T11:51:18.511Z,37.10
2024-05-09T11:53:51.404Z,36.50
2024-05-09T11:56:29.910Z,36.10
2024-05-09T11:59:03.233Z,35.30
2024-05-09T12:01:38.843Z,34.80
2024-05-09T12:04:15.889Z,34.60
2024-05-09T12:06:51.703Z,34.60
2024-05-09T12:09:25.632Z,33.70
2024-05-09T12:12:00.904Z,33.40
2024-05-09T12:14:33.822Z,33.40
2024-05-09T12:17:09.425Z,33.40
2024-05-09T12:19:45.058Z,33.10
2024-05-09T12:22:20.652Z,32.60
2024-05-09T12:24:53.566Z,32.90
2024-05-09T12:27:29.109Z,32.60
2024-05-09T12:30:02.518Z,32.70
2024-05-09T12:32:39.121Z,32.80
2024-05-09T12:35:14.919Z,32.20
2024-05-09T12:37:50.540Z,32.00
2024-05-09T12:40:31.636Z,31.30
2024-05-09T12:43:12.347Z,31.50
2024-05-09T12:45:45.477Z,31.50
2024-05-09T12:48:21.048Z,32.00
2024-05-09T12:50:57.919Z,31.60
2024-05-09T12:53:33.421Z,31.10
2024-05-09T12:56:09.209Z,31.10
2024-05-09T12:58:44.889Z,31.90
2024-05-09T13:01:17.764Z,31.50
2024-05-09T13:03:53.419Z,31.70
2024-05-09T13:06:29.183Z,31.60
2024-05-09T13:09:04.814Z,31.40
2024-05-09T13:11:37.850Z,31.70
2024-05-09T13:14:13.319Z,31.60
2024-05-09T13:16:46.123Z,31.60
2024-05-09T13:19:21.736Z,31.60
2024-05-09T13:21:57.295Z,31.50
2024-05-09T13:24:32.781Z,31.50
2024-05-09T13:27:05.959Z,30.90
2024-05-09T13:29:44.231Z,30.30
2024-05-09T13:32:17.513Z,30.30
2024-05-09T13:34:53.002Z,30.30
2024-05-09T13:37:28.940Z,30.50
2024-05-09T13:40:07.100Z,30.30
2024-05-09T13:42:40.125Z,29.90
2024-05-09T13:45:15.770Z,29.80
2024-05-09T13:47:48.915Z,29.70
2024-05-09T13:50:33.153Z,30.00
2024-05-09T13:53:15.062Z,30.20
2024-05-09T13:55:48.471Z,30.50
2024-05-09T13:58:24.244Z,29.90
2024-05-09T14:00:57.403Z,30.00
2024-05-09T14:03:33.470Z,30.90
2024-05-09T14:06:08.743Z,30.90
2024-05-09T14:08:48.559Z,30.50
2024-05-09T14:11:22.015Z,30.80
2024-05-09T14:13:57.725Z,30.20
2024-05-09T14:16:31.430Z,30.10
2024-05-09T14:19:06.775Z,30.10
2024-05-09T14:21:39.412Z,30.50
2024-05-09T14:24:17.449Z,30.50
2024-05-09T14:26:50.467Z,30.60
2024-05-09T14:29:25.817Z,30.80
2024-05-09T14:31:58.626Z,30.70
2024-05-09T14:34:34.356Z,30.60
2024-05-09T14:37:07.319Z,30.50
2024-05-09T14:39:45.631Z,30.80
2024-05-09T14:42:19.727Z,30.60
2024-05-09T14:44:55.672Z,30.50
2024-05-09T14:47:28.994Z,29.70
2024-05-09T14:50:06.952Z,30.20
2024-05-09T14:52:41.676Z,29.80
2024-05-09T14:55:19.898Z,29.70
2024-05-09T14:57:52.824Z,30.20
2024-05-09T15:00:33.302Z,29.80
2024-05-09T15:03:09.032Z,29.90
2024-05-09T15:05:45.212Z,30.00
2024-05-09T15:08:18.981Z,30.00
2024-05-09T15:10:57.489Z,30.00
2024-05-09T15:13:30.726Z,29.70
2024-05-09T15:16:07.527Z,30.00
2024-05-09T15:18:43.775Z,30.10
2024-05-09T15:21:19.746Z,30.50
2024-05-09T15:23:55.465Z,30.10
2024-05-09T15:26:30.877Z,30.30
2024-05-09T15:29:06.213Z,30.80
2024-05-09T15:31:39.036Z,30.50
2024-05-09T15:34:14.341Z,31.00
2024-05-09T15:36:51.408Z,30.60
2024-05-09T15:39:30.403Z,30.90
2024-05-09T15:42:06.254Z,30.20
2024-05-09T15:44:41.646Z,30.10
2024-05-09T15:47:14.572Z,30.30
2024-05-09T15:49:50.888Z,30.10
2024-05-09T15:52:23.856Z,30.80
2024-05-09T15:54:59.285Z,31.00
2024-05-09T15:57:34.753Z,31.30
2024-05-09T16:00:21.481Z,30.80
2024-05-09T16:02:58.177Z,31.10
2024-05-09T16:05:34.003Z,30.70
2024-05-09T16:08:07.772Z,31.10
2024-05-09T16:10:46.265Z,30.30
2024-05-09T16:13:22.536Z,30.10
2024-05-09T16:15:58.356Z,30.90
2024-05-09T16:18:31.287Z,30.20
2024-05-09T16:21:07.131Z,31.00
2024-05-09T16:23:40.655Z,30.20
2024-05-09T16:26:16.084Z,30.00
2024-05-09T16:28:51.808Z,29.60
2024-05-09T16:31:27.689Z,30.00
2024-05-09T16:34:01.051Z,30.40
2024-05-09T16:36:36.771Z,31.00
2024-05-09T16:39:09.670Z,30.60
2024-05-09T16:41:45.116Z,30.20
2024-05-09T16:44:20.605Z,30.00
2024-05-09T16:46:57.304Z,30.20
2024-05-09T16:49:30.194Z,30.60
2024-05-09T16:52:06.235Z,30.60
2024-05-09T16:54:39.270Z,30.70
2024-05-09T16:57:14.898Z,30.00
2024-05-09T16:59:50.570Z,30.20
2024-05-09T17:02:26.250Z,30.00
2024-05-09T17:04:59.310Z,30.20
2024-05-09T17:07:35.267Z,30.10
2024-05-09T17:10:15.449Z,30.70
2024-05-09T17:12:57.584Z,30.50
2024-05-09T17:15:36.905Z,30.80
2024-05-09T17:18:14.309Z,30.70
2024-05-09T17:20:50.439Z,30.10
2024-05-09T17:23:23.554Z,29.90
2024-05-09T17:25:59.179Z,30.20
2024-05-09T17:28:32.280Z,30.30
2024-05-09T17:31:11.213Z,30.00
2024-05-09T17:33:44.345Z,30.10
2024-05-09T17:36:20.155Z,30.50
2024-05-09T17:38:53.190Z,30.50
2024-05-09T17:41:28.764Z,30.80
2024-05-09T17:44:03.046Z,31.00
2024-05-09T17:46:41.607Z,31.30
2024-05-09T17:49:14.710Z,31.40
2024-05-09T17:51:59.456Z,31.70
2024-05-09T17:54:32.443Z,32.20
2024-05-09T17:57:09.446Z,32.20
2024-05-09T17:59:42.329Z,32.50
2024-05-09T18:02:20.647Z,32.70
2024-05-09T18:04:53.875Z,32.90
2024-05-09T18:07:29.393Z,33.20
2024-05-09T18:10:03.210Z,33.10
2024-05-09T18:12:39.258Z,33.10
2024-05-09T18:15:12.178Z,33.40
2024-05-09T18:17:50.771Z,33.60
2024-05-09T18:20:33.137Z,33.70
2024-05-09T18:23:18.728Z,33.60
2024-05-09T18:25:54.913Z,33.90
2024-05-09T18:28:30.784Z,34.00
2024-05-09T18:31:03.899Z,34.00
2024-05-09T18:33:42.367Z,34.20
2024-05-09T18:36:15.402Z,34.00
2024-05-09T18:38:51.453Z,34.00
2024-05-09T18:41:24.417Z,34.40
2024-05-09T18:44:00.058Z,34.70
2024-05-09T18:46:33.105Z,34.70
2024-05-09T18:49:11.674Z,34.80
2024-05-09T18:51:44.726Z,34.90
2024-05-09T18:54:20.302Z,34.90
2024-05-09T18:56:53.189Z,35.10
2024-05-09T18:59:28.746Z,35.10
2024-05-09T19:02:01.794Z,35.10
2024-05-09T19:04:40.278Z,35.10
2024-05-09T19:07:13.651Z,35.20
2024-05-09T19:09:49.283Z,35.30
2024-05-09T19:12:22.439Z,35.50
2024-05-09T19:14:57.987Z,35.60
2024-05-09T19:17:31.761Z,35.70
2024-05-09T19:20:20.589Z,35.70
2024-05-09T19:23:01.992Z,35.80
2024-05-09T19:25:38.403Z,35.70
2024-05-09T19:28:11.448Z,35.70
2024-05-09T19:30:47.024Z,35.80
2024-05-09T19:33:20.038Z,35.70
2024-05-09T19:35:58.496Z,35.70
2024-05-09T19:38:31.859Z,35.80
2024-05-09T19:41:08.144Z,35.80
2024-05-09T19:43:41.293Z,35.80
2024-05-09T19:46:17.049Z,35.80
2024-05-09T19:48:50.209Z,35.80
2024-05-09T19:51:28.646Z,35.80
2024-05-09T19:54:01.717Z,35.80
2024-05-09T19:56:40.491Z,35.80
2024-05-09T19:59:13.510Z,35.80
2024-05-09T20:01:49.257Z,35.80
2024-05-09T20:04:22.333Z,35.80
2024-05-09T20:07:00.793Z,35.80
2024-05-09T20:09:33.627Z,35.80
2024-05-09T20:12:09.665Z,35.80
2024-05-09T20:14:42.741Z,35.80
2024-05-09T20:17:18.224Z,35.80
2024-05-09T20:19:51.316Z,35.80
2024-05-09T20:22:29.675Z,35.80
2024-05-09T20:25:02.512Z,35.80
2024-05-09T20:27:38.142Z,35.80
2024-05-09T20:30:14.395Z,35.80
2024-05-09T20:32:52.556Z,35.80
2024-05-09T20:35:26.603Z,35.80
2024-05-09T20:38:05.209Z,35.80
2024-05-09T20:40:39.634Z,35.90
2024-05-09T20:43:16.087Z,35.80
2024-05-09T20:45:49.007Z,35.70
2024-05-09T20:48:24.815Z,35.70
2024-05-09T20:50:57.928Z,35.60
2024-05-09T20:53:36.053Z,36.30
2024-05-09T20:56:09.119Z,35.70
2024-05-09T20:58:44.575Z,35.80
2024-05-09T21:01:17.430Z,35.70
2024-05-09T21:03:53.281Z,35.70
2024-05-09T21:06:26.336Z,35.70
2024-05-09T21:09:04.654Z,35.80
2024-05-09T21:11:37.625Z,35.90
2024-05-09T21:14:13.229Z,35.90
2024-05-09T21:16:46.222Z,36.00
2024-05-09T21:19:21.809Z,36.10
2024-05-09T21:21:54.586Z,36.10
2024-05-09T21:24:43.367Z,36.10
2024-05-09T21:27:16.183Z,36.20
2024-05-09T21:29:51.714Z,36.20
2024-05-09T21:32:24.569Z,36.20
2024-05-09T21:35:00.238Z,36.30
2024-05-09T21:37:33.141Z,36.30
2024-05-09T21:40:17.018Z,36.30
2024-05-09T21:42:56.996Z,36.30
2024-05-09T21:45:32.669Z,36.30
2024-05-09T21:48:07.025Z,36.30
2024-05-09T21:50:42.922Z,36.90
2024-05-09T21:53:16.155Z,36.30
2024-05-09T21:55:55.601Z,36.30
2024-05-09T21:58:29.008Z,36.30
2024-05-09T22:01:06.089Z,36.30
2024-05-09T22:03:39.285Z,36.30
2024-05-09T22:06:14.873Z,36.30
2024-05-09T22:08:47.713Z,36.30
2024-05-09T22:11:26.030Z,36.30
2024-05-09T22:13:59.058Z,36.30
2024-05-09T22:16:34.737Z,36.30
2024-05-09T22:19:08.200Z,36.30
2024-05-09T22:21:43.765Z,36.30
2024-05-09T22:24:16.638Z,36.30
2024-05-09T22:26:55.406Z,36.30
2024-05-09T22:29:28.329Z,36.30
2024-05-09T22:32:03.930Z,36.20
2024-05-09T22:34:36.678Z,36.30
2024-05-09T22:37:12.259Z,36.20
2024-05-09T22:39:45.158Z,36.30
2024-05-09T22:42:23.304Z,36.20
2024-05-09T22:44:56.332Z,36.20
2024-05-09T22:47:31.957Z,36.20
2024-05-09T22:50:05.698Z,36.20
2024-05-09T22:52:44.151Z,36.20
2024-05-09T22:55:16.933Z,36.20
2024-05-09T22:57:55.211Z,36.20
2024-05-09T23:00:31.797Z,36.20
2024-05-09T23:03:08.757Z,36.20
2024-05-09T23:05:41.595Z,36.20
2024-05-09T23:08:17.231Z,36.20
2024-05-09T23:10:50.207Z,36.20
2024-05-09T23:13:28.410Z,36.20
2024-05-09T23:16:01.339Z,36.80
2024-05-09T23:18:36.819Z,36.20
2024-05-09T23:21:09.607Z,36.20
2024-05-09T23:23:45.711Z,36.20
2024-05-09T23:26:18.484Z,36.20
2024-05-09T23:28:56.604Z,37.40
2024-05-09T23:31:29.828Z,38.40
2024-05-09T23:34:05.894Z,38.60
2024-05-09T23:36:39.008Z,38.50
2024-05-09T23:39:14.576Z,38.40
2024-05-09T23:41:47.463Z,38.50
2024-05-09T23:44:25.616Z,38.40
2024-05-09T23:46:58.456Z,38.30
2024-05-09T23:49:34.047Z,38.30
2024-05-09T23:52:07.179Z,38.40
2024-05-09T23:54:42.680Z,38.40
2024-05-09T23:57:15.606Z,38.50
2024-05-09T23:59:54.094Z,38.60
